Time;durP1;ratioP1;P1;durP2;ratioP2;P2;SDS_P1;SDS_P2;PMS_P1;PMS_P2;Temp;Humidity;BMP_temperature;BMP_pressure;BME280_temperature;BME280_humidity;BME280_pressure;Samples;Min_cycle;Max_cycle;Signal;HPM_P1;HPM_P2
2021/06/28 00:00:43;;;;;;;6.53;4.60;;;;;;;;;;5074764;28;20048;-73
2021/06/28 00:03:09;;;;;;;6.90;5.00;;;;;;;;;;5090046;28;20025;-73
2021/06/28 00:05:35;;;;;;;14.23;5.85;;;;;;;;;;5073363;28;20505;-73
2021/06/28 00:08:02;;;;;;;6.07;4.80;;;;;;;;;;5074105;28;20395;-73
2021/06/28 00:10:29;;;;;;;9.13;4.72;;;;;;;;;;5074524;28;20017;-73
2021/06/28 00:12:57;;;;;;;8.45;5.20;;;;;;;;;;5074143;28;20032;-73
2021/06/28 00:15:25;;;;;;;7.95;5.18;;;;;;;;;;5074117;28;20044;-73
2021/06/28 00:17:51;;;;;;;12.48;5.35;;;;;;;;;;5074334;28;20028;-73
2021/06/28 00:20:18;;;;;;;9.40;4.50;;;;;;;;;;5073952;28;20368;-73
2021/06/28 00:22:45;;;;;;;7.00;4.80;;;;;;;;;;5074169;28;20051;-73
2021/06/28 00:25:12;;;;;;;6.15;4.68;;;;;;;;;;5074061;28;20089;-73
2021/06/28 00:27:38;;;;;;;8.27;4.85;;;;;;;;;;5074048;28;20025;-73
2021/06/28 00:30:06;;;;;;;8.10;4.68;;;;;;;;;;5073872;28;20020;-73
2021/06/28 00:32:32;;;;;;;11.18;4.80;;;;;;;;;;5074046;28;20035;-73
2021/06/28 00:34:58;;;;;;;7.95;4.97;;;;;;;;;;5073787;28;20493;-73
2021/06/28 00:37:25;;;;;;;6.97;4.55;;;;;;;;;;5074064;28;20523;-73
2021/06/28 00:39:51;;;;;;;9.25;4.90;;;;;;;;;;5073923;28;20028;-73
2021/06/28 00:42:17;;;;;;;8.32;5.60;;;;;;;;;;5073710;28;20519;-73
2021/06/28 00:44:43;;;;;;;6.72;4.78;;;;;;;;;;5073775;28;20025;-73
2021/06/28 00:47:09;;;;;;;6.07;4.38;;;;;;;;;;5073190;28;20112;-73
2021/06/28 00:49:35;;;;;;;10.25;5.30;;;;;;;;;;5073621;28;20025;-73
2021/06/28 00:52:01;;;;;;;6.43;4.68;;;;;;;;;;5073524;28;20475;-73
2021/06/28 00:54:28;;;;;;;11.00;5.82;;;;;;;;;;5073381;28;20024;-73
2021/06/28 00:56:54;;;;;;;6.28;5.10;;;;;;;;;;5073210;28;20024;-73
2021/06/28 00:59:21;;;;;;;8.02;4.45;;;;;;;;;;5073582;28;20024;-73
2021/06/28 01:01:47;;;;;;;8.13;5.55;;;;;;;;;;5073080;28;20078;-73
2021/06/28 01:04:13;;;;;;;6.60;5.35;;;;;;;;;;5073344;28;20031;-73
2021/06/28 01:06:39;;;;;;;5.93;4.82;;;;;;;;;;5073088;28;20028;-74
2021/06/28 01:09:05;;;;;;;11.65;5.32;;;;;;;;;;5073239;28;20082;-73
2021/06/28 01:11:31;;;;;;;7.85;5.95;;;;;;;;;;5072971;28;20035;-73
2021/06/28 01:13:58;;;;;;;9.18;5.57;;;;;;;;;;5073228;28;20092;-73
2021/06/28 01:16:25;;;;;;;6.05;4.78;;;;;;;;;;5072654;28;20021;-73
2021/06/28 01:18:51;;;;;;;10.23;4.78;;;;;;;;;;5073023;28;20093;-73
2021/06/28 01:21:17;;;;;;;6.70;4.40;;;;;;;;;;5065256;28;20035;-73
2021/06/28 01:23:43;;;;;;;8.00;4.63;;;;;;;;;;5073071;28;20104;-73
2021/06/28 01:26:11;;;;;;;7.63;5.35;;;;;;;;;;5072799;28;20140;-73
2021/06/28 01:28:37;;;;;;;7.05;4.75;;;;;;;;;;5072851;28;20056;-73
2021/06/28 01:31:05;;;;;;;7.20;4.78;;;;;;;;;;5072541;28;20016;-73
2021/06/28 01:33:31;;;;;;;7.07;4.75;;;;;;;;;;5071548;28;20029;-74
2021/06/28 01:35:57;;;;;;;5.22;4.28;;;;;;;;;;5072597;28;20092;-73
2021/06/28 01:38:24;;;;;;;7.68;4.78;;;;;;;;;;5072793;28;20027;-73
2021/06/28 01:40:50;;;;;;;8.13;5.03;;;;;;;;;;5072538;28;20043;-74
2021/06/28 01:43:16;;;;;;;9.73;4.93;;;;;;;;;;5072760;28;20021;-74
2021/06/28 01:45:44;;;;;;;5.97;4.85;;;;;;;;;;5072376;28;20024;-74
2021/06/28 01:48:10;;;;;;;7.72;4.75;;;;;;;;;;5072555;28;20016;-74
2021/06/28 01:50:37;;;;;;;7.72;4.68;;;;;;;;;;5072330;28;20025;-73
2021/06/28 01:53:04;;;;;;;11.27;4.90;;;;;;;;;;5072671;28;20020;-73
2021/06/28 01:55:30;;;;;;;7.63;5.40;;;;;;;;;;5072485;28;20136;-74
2021/06/28 01:57:58;;;;;;;8.90;5.47;;;;;;;;;;5072285;28;20032;-74
2021/06/28 02:00:27;;;;;;;7.90;4.75;;;;;;;;;;5072477;28;20020;-73
2021/06/28 02:03:01;;;;;;;6.65;4.68;;;;;;;;;;5072336;28;20398;-74
2021/06/28 02:05:28;;;;;;;6.85;4.95;;;;;;;;;;5072397;28;20081;-73
2021/06/28 02:07:54;;;;;;;7.93;5.03;;;;;;;;;;5072070;28;20036;-73
2021/06/28 02:10:20;;;;;;;6.40;4.70;;;;;;;;;;5072285;28;20025;-73
2021/06/28 02:12:46;;;;;;;6.85;5.40;;;;;;;;;;5071301;28;20028;-73
2021/06/28 02:15:23;;;;;;;8.05;5.13;;;;;;;;;;5072239;28;20060;-74
2021/06/28 02:17:49;;;;;;;6.85;5.47;;;;;;;;;;5072278;28;20028;-73
2021/06/28 02:20:16;;;;;;;7.10;5.53;;;;;;;;;;5072293;28;20029;-74
2021/06/28 02:22:42;;;;;;;7.15;5.13;;;;;;;;;;5072066;28;20024;-74
2021/06/28 02:25:09;;;;;;;6.80;4.88;;;;;;;;;;5072240;28;20028;-74
2021/06/28 02:27:36;;;;;;;6.90;4.60;;;;;;;;;;5070981;28;20045;-74
2021/06/28 02:30:02;;;;;;;8.48;5.00;;;;;;;;;;5076343;28;20016;-73
2021/06/28 02:32:28;;;;;;;5.97;4.60;;;;;;;;;;5076120;28;20063;-73
2021/06/28 02:34:54;;;;;;;5.90;4.70;;;;;;;;;;5076341;28;20356;-73
2021/06/28 02:37:20;;;;;;;7.30;5.15;;;;;;;;;;5076002;28;20104;-72
2021/06/28 02:39:46;;;;;;;8.25;4.97;;;;;;;;;;5076374;28;20541;-74
2021/06/28 02:42:12;;;;;;;6.63;5.20;;;;;;;;;;5075952;28;20028;-73
2021/06/28 02:44:39;;;;;;;8.05;4.80;;;;;;;;;;5076059;28;20042;-74
2021/06/28 02:47:05;;;;;;;6.65;4.50;;;;;;;;;;5075682;28;20036;-73
2021/06/28 02:49:31;;;;;;;6.47;4.60;;;;;;;;;;5075923;28;20024;-73
2021/06/28 02:51:57;;;;;;;6.22;5.38;;;;;;;;;;5075655;28;20477;-73
2021/06/28 02:54:23;;;;;;;7.20;4.53;;;;;;;;;;5075902;28;20024;-74
2021/06/28 02:56:49;;;;;;;5.65;4.20;;;;;;;;;;5075326;28;20040;-73
2021/06/28 02:59:15;;;;;;;6.70;4.53;;;;;;;;;;5091101;28;20036;-73
2021/06/28 03:01:41;;;;;;;5.95;4.05;;;;;;;;;;5075564;28;20028;-73
2021/06/28 03:04:07;;;;;;;6.80;4.85;;;;;;;;;;5075722;28;20024;-73
2021/06/28 03:06:33;;;;;;;6.32;4.18;;;;;;;;;;5075297;28;20033;-73
2021/06/28 03:08:59;;;;;;;5.70;4.68;;;;;;;;;;5075598;28;20035;-73
2021/06/28 03:11:26;;;;;;;7.60;4.90;;;;;;;;;;5075243;28;20520;-73
2021/06/28 03:13:52;;;;;;;6.70;4.38;;;;;;;;;;5075355;28;20104;-74
2021/06/28 03:16:18;;;;;;;6.63;4.53;;;;;;;;;;5075154;28;20024;-73
2021/06/28 03:18:45;;;;;;;7.55;4.53;;;;;;;;;;5075550;28;20457;-73
2021/06/28 03:21:12;;;;;;;7.43;4.50;;;;;;;;;;5062825;28;20064;-73
2021/06/28 03:23:39;;;;;;;6.43;4.53;;;;;;;;;;5075328;28;20468;-74
2021/06/28 03:26:06;;;;;;;9.52;4.93;;;;;;;;;;5073767;28;20513;-73
2021/06/28 03:28:32;;;;;;;7.30;4.75;;;;;;;;;;5090690;28;20433;-73
2021/06/28 03:30:58;;;;;;;6.57;4.03;;;;;;;;;;5075452;28;20052;-73
2021/06/28 03:33:25;;;;;;;5.78;4.03;;;;;;;;;;5090423;28;20025;-73
2021/06/28 03:35:51;;;;;;;7.40;4.07;;;;;;;;;;5075210;28;20029;-73
2021/06/28 03:38:17;;;;;;;6.78;3.97;;;;;;;;;;5074866;28;20028;-74
2021/06/28 03:40:43;;;;;;;7.13;4.05;;;;;;;;;;5073700;28;20046;-73
2021/06/28 03:43:11;;;;;;;7.30;4.38;;;;;;;;;;5074798;28;20024;-73
2021/06/28 03:45:38;;;;;;;5.30;4.28;;;;;;;;;;5075002;28;20490;-73
2021/06/28 03:48:05;;;;;;;4.93;4.22;;;;;;;;;;5074668;28;20028;-73
2021/06/28 03:50:31;;;;;;;7.72;4.45;;;;;;;;;;5074923;28;20016;-73
2021/06/28 03:52:57;;;;;;;7.20;4.28;;;;;;;;;;5074604;28;20035;-74
2021/06/28 03:55:24;;;;;;;9.27;4.45;;;;;;;;;;5074439;28;20212;-74
2021/06/28 03:57:50;;;;;;;4.28;3.78;;;;;;;;;;5074462;28;20107;-73
2021/06/28 04:00:17;;;;;;;7.68;4.30;;;;;;;;;;5074702;28;20028;-73
2021/06/28 04:02:44;;;;;;;5.18;4.20;;;;;;;;;;5074456;28;20367;-73
2021/06/28 04:05:12;;;;;;;5.28;4.63;;;;;;;;;;5074201;28;20119;-73
2021/06/28 04:07:38;;;;;;;5.45;4.43;;;;;;;;;;5074488;28;20024;-73
2021/06/28 04:10:05;;;;;;;5.90;4.38;;;;;;;;;;5073812;28;20023;-73
2021/06/28 04:12:31;;;;;;;6.70;4.82;;;;;;;;;;5074711;28;20739;-73
2021/06/28 04:14:57;;;;;;;5.45;3.92;;;;;;;;;;5074358;28;20477;-73
2021/06/28 04:17:23;;;;;;;5.68;4.38;;;;;;;;;;5074390;28;20104;-73
2021/06/28 04:19:49;;;;;;;8.50;4.35;;;;;;;;;;5073403;28;20070;-73
2021/06/28 04:22:15;;;;;;;5.28;4.30;;;;;;;;;;5074419;28;20112;-73
2021/06/28 04:24:41;;;;;;;6.20;4.78;;;;;;;;;;5072603;28;20395;-73
2021/06/28 04:27:07;;;;;;;5.20;4.22;;;;;;;;;;5074365;28;20028;-73
2021/06/28 04:29:33;;;;;;;6.35;4.55;;;;;;;;;;5089560;28;20021;-73
2021/06/28 04:31:59;;;;;;;5.70;5.07;;;;;;;;;;5074140;28;20020;-73
2021/06/28 04:34:25;;;;;;;5.30;4.07;;;;;;;;;;5072423;28;20128;-72
2021/06/28 04:36:52;;;;;;;6.35;4.22;;;;;;;;;;5054050;28;20535;-73
2021/06/28 04:39:18;;;;;;;6.72;4.57;;;;;;;;;;5055013;28;20027;-73
2021/06/28 04:41:44;;;;;;;8.65;4.32;;;;;;;;;;5073894;28;20077;-73
2021/06/28 04:44:10;;;;;;;6.25;3.88;;;;;;;;;;5074684;28;20535;-73
2021/06/28 04:46:36;;;;;;;5.65;3.88;;;;;;;;;;5073754;28;20032;-74
2021/06/28 04:49:02;;;;;;;6.05;4.57;;;;;;;;;;5074016;28;20099;-73
2021/06/28 04:51:28;;;;;;;5.85;3.92;;;;;;;;;;5073809;28;20025;-74
2021/06/28 04:53:54;;;;;;;5.45;4.25;;;;;;;;;;5073681;28;20391;-73
2021/06/28 04:56:20;;;;;;;6.40;4.22;;;;;;;;;;5073213;28;20051;-73
2021/06/28 04:58:46;;;;;;;7.25;4.53;;;;;;;;;;5072416;28;20032;-73
2021/06/28 05:01:12;;;;;;;6.45;4.65;;;;;;;;;;5073260;28;20077;-73
2021/06/28 05:03:39;;;;;;;6.93;4.53;;;;;;;;;;5073309;28;20479;-73
2021/06/28 05:06:05;;;;;;;7.97;4.60;;;;;;;;;;5073086;28;20067;-73
2021/06/28 05:08:31;;;;;;;7.93;4.72;;;;;;;;;;5073410;28;20534;-73
2021/06/28 05:10:57;;;;;;;7.63;5.00;;;;;;;;;;5073011;28;20028;-73
2021/06/28 05:13:23;;;;;;;7.10;4.30;;;;;;;;;;5073254;28;20106;-73
2021/06/28 05:15:49;;;;;;;5.63;4.38;;;;;;;;;;5073129;28;20026;-73
2021/06/28 05:18:15;;;;;;;5.95;4.60;;;;;;;;;;5072982;28;20518;-73
2021/06/28 05:20:41;;;;;;;6.15;4.28;;;;;;;;;;5070524;28;20411;-73
2021/06/28 05:23:07;;;;;;;6.47;4.28;;;;;;;;;;5071915;28;20028;-74
2021/06/28 05:25:33;;;;;;;5.85;4.38;;;;;;;;;;5071735;28;20437;-73
2021/06/28 05:27:59;;;;;;;5.25;4.50;;;;;;;;;;5072889;28;20031;-73
2021/06/28 05:30:26;;;;;;;6.82;4.85;;;;;;;;;;5072715;28;20386;-73
2021/06/28 05:32:52;;;;;;;8.35;4.85;;;;;;;;;;5072804;28;20025;-73
2021/06/28 05:35:18;;;;;;;7.50;4.50;;;;;;;;;;5072488;28;20450;-74
2021/06/28 05:37:44;;;;;;;7.75;5.10;;;;;;;;;;5072907;28;20040;-73
2021/06/28 05:40:11;;;;;;;7.00;4.63;;;;;;;;;;5072531;28;20403;-73
2021/06/28 05:42:38;;;;;;;8.02;5.00;;;;;;;;;;5072705;28;20101;-73
2021/06/28 05:45:05;;;;;;;7.65;4.68;;;;;;;;;;5072512;28;20501;-73
2021/06/28 05:47:33;;;;;;;10.18;4.68;;;;;;;;;;5072564;28;20398;-73
2021/06/28 05:49:59;;;;;;;7.32;4.82;;;;;;;;;;5072531;28;20479;-73
2021/06/28 05:52:25;;;;;;;7.35;4.90;;;;;;;;;;5072606;28;20693;-73
2021/06/28 05:54:51;;;;;;;8.80;5.95;;;;;;;;;;5072491;28;20520;-74
2021/06/28 05:57:19;;;;;;;6.57;4.63;;;;;;;;;;5072627;28;20111;-74
2021/06/28 05:59:46;;;;;;;6.45;4.68;;;;;;;;;;5072268;28;20024;-73
2021/06/28 06:02:12;;;;;;;6.10;4.75;;;;;;;;;;5070304;28;20016;-73
2021/06/28 06:04:38;;;;;;;5.95;5.13;;;;;;;;;;5072622;28;20021;-73
2021/06/28 06:07:04;;;;;;;6.53;4.65;;;;;;;;;;5072074;28;20027;-73
2021/06/28 06:09:30;;;;;;;8.30;4.50;;;;;;;;;;5072136;28;20032;-72
2021/06/28 06:11:56;;;;;;;7.80;4.45;;;;;;;;;;5071420;28;20070;-72
2021/06/28 06:14:22;;;;;;;7.10;4.63;;;;;;;;;;5072101;28;20032;-73
2021/06/28 06:16:49;;;;;;;6.00;4.05;;;;;;;;;;5071945;28;20035;-73
2021/06/28 06:19:15;;;;;;;6.68;4.60;;;;;;;;;;5072031;28;20043;-73
2021/06/28 06:21:41;;;;;;;6.63;4.50;;;;;;;;;;5063448;28;20033;-74
2021/06/28 06:24:08;;;;;;;5.18;4.30;;;;;;;;;;5071543;28;20093;-74
2021/06/28 06:26:34;;;;;;;7.00;4.22;;;;;;;;;;5071755;28;20034;-74
2021/06/28 06:29:00;;;;;;;5.90;4.50;;;;;;;;;;5072298;28;20060;-74
2021/06/28 06:31:26;;;;;;;5.93;4.25;;;;;;;;;;5072167;28;20100;-74
2021/06/28 06:33:52;;;;;;;6.70;4.38;;;;;;;;;;5071930;28;20027;-74
2021/06/28 06:36:18;;;;;;;7.22;4.65;;;;;;;;;;5072290;28;20040;-74
2021/06/28 06:38:44;;;;;;;5.10;3.85;;;;;;;;;;5072282;28;20074;-74
2021/06/28 06:41:10;;;;;;;5.30;3.72;;;;;;;;;;5071976;28;20521;-74
2021/06/28 06:43:37;;;;;;;5.30;3.78;;;;;;;;;;5072069;28;20039;-74
2021/06/28 06:46:03;;;;;;;6.80;4.10;;;;;;;;;;5071976;28;20021;-74
2021/06/28 06:48:29;;;;;;;7.00;4.40;;;;;;;;;;5071770;28;20029;-74
2021/06/28 06:50:55;;;;;;;5.22;3.80;;;;;;;;;;5070845;28;20070;-75
2021/06/28 06:53:21;;;;;;;7.07;4.50;;;;;;;;;;5071931;28;20025;-74
2021/06/28 06:55:48;;;;;;;5.63;3.92;;;;;;;;;;5071754;28;20065;-74
2021/06/28 06:58:14;;;;;;;6.47;4.07;;;;;;;;;;5070217;28;20020;-74
2021/06/28 07:00:41;;;;;;;5.57;3.92;;;;;;;;;;5070655;28;20391;-73
2021/06/28 07:03:08;;;;;;;4.85;3.72;;;;;;;;;;5061480;28;20394;-73
2021/06/28 07:05:35;;;;;;;5.18;3.88;;;;;;;;;;5064178;28;20024;-74
2021/06/28 07:08:01;;;;;;;5.55;3.92;;;;;;;;;;5064366;28;20040;-73
2021/06/28 07:10:27;;;;;;;5.97;4.38;;;;;;;;;;5067414;28;20112;-73
2021/06/28 07:12:54;;;;;;;5.50;3.85;;;;;;;;;;5063582;28;20258;-74
2021/06/28 07:15:21;;;;;;;5.32;4.18;;;;;;;;;;5071053;28;20028;-74
2021/06/28 07:17:47;;;;;;;5.03;4.03;;;;;;;;;;5068322;28;20077;-73
2021/06/28 07:20:15;;;;;;;4.90;3.88;;;;;;;;;;5068095;28;20039;-73
2021/06/28 07:22:41;;;;;;;4.78;3.67;;;;;;;;;;5069896;28;20043;-72
2021/06/28 07:25:08;;;;;;;5.00;3.97;;;;;;;;;;5066338;28;20491;-74
2021/06/28 07:27:34;;;;;;;5.65;3.85;;;;;;;;;;5066652;28;20042;-73
2021/06/28 07:30:00;;;;;;;4.60;3.75;;;;;;;;;;5070862;28;20105;-74
2021/06/28 07:32:26;;;;;;;4.38;3.58;;;;;;;;;;5068023;28;20117;-73
2021/06/28 07:34:52;;;;;;;6.85;4.60;;;;;;;;;;5070507;28;20028;-74
2021/06/28 07:37:18;;;;;;;4.72;3.65;;;;;;;;;;5070523;28;20039;-75
2021/06/28 07:39:45;;;;;;;6.35;3.65;;;;;;;;;;5067853;28;20104;-74
2021/06/28 07:42:11;;;;;;;4.82;3.50;;;;;;;;;;5065789;28;20052;-75
2021/06/28 07:44:37;;;;;;;4.55;4.05;;;;;;;;;;5062912;28;20505;-74
2021/06/28 07:47:03;;;;;;;6.28;4.32;;;;;;;;;;5067810;28;20120;-75
2021/06/28 07:49:30;;;;;;;4.65;3.55;;;;;;;;;;5069536;28;20058;-74
2021/06/28 07:51:56;;;;;;;4.97;3.45;;;;;;;;;;5056864;28;20599;-74
2021/06/28 07:54:23;;;;;;;5.07;3.40;;;;;;;;;;5056314;28;20520;-73
2021/06/28 07:56:50;;;;;;;5.47;3.60;;;;;;;;;;5063069;28;20530;-74
2021/06/28 07:59:16;;;;;;;4.43;3.60;;;;;;;;;;5062516;28;20039;-74
2021/06/28 08:01:42;;;;;;;8.50;3.42;;;;;;;;;;5054469;28;20041;-75
2021/06/28 08:04:08;;;;;;;4.57;3.58;;;;;;;;;;5066334;28;20063;-74
2021/06/28 08:06:35;;;;;;;6.63;3.60;;;;;;;;;;5069617;28;20573;-74
2021/06/28 08:09:01;;;;;;;4.60;3.35;;;;;;;;;;5070196;28;20040;-73
2021/06/28 08:11:27;;;;;;;4.72;3.40;;;;;;;;;;5069513;28;20024;-73
2021/06/28 08:13:54;;;;;;;3.95;3.10;;;;;;;;;;5063034;28;20047;-76
2021/06/28 08:16:20;;;;;;;6.70;3.55;;;;;;;;;;5066893;28;20052;-73
2021/06/28 08:18:48;;;;;;;4.65;3.20;;;;;;;;;;5069157;28;20066;-73
2021/06/28 08:21:15;;;;;;;6.63;3.88;;;;;;;;;;5062512;28;20029;-73
2021/06/28 08:23:42;;;;;;;5.30;4.03;;;;;;;;;;5056859;28;20041;-73
2021/06/28 08:26:09;;;;;;;4.40;3.42;;;;;;;;;;5063502;28;20052;-73
2021/06/28 08:28:35;;;;;;;5.00;3.60;;;;;;;;;;5068772;28;20076;-73
2021/06/28 08:31:01;;;;;;;5.45;3.25;;;;;;;;;;5069107;28;20048;-73
2021/06/28 08:33:27;;;;;;;4.28;3.30;;;;;;;;;;5068596;28;20048;-73
2021/06/28 08:35:54;;;;;;;4.60;3.50;;;;;;;;;;5068936;28;20035;-73
2021/06/28 08:38:21;;;;;;;4.78;4.05;;;;;;;;;;5069981;28;20098;-73
2021/06/28 08:40:48;;;;;;;4.07;3.10;;;;;;;;;;5067472;28;20055;-74
2021/06/28 08:43:14;;;;;;;4.40;3.33;;;;;;;;;;5064217;28;20021;-74
2021/06/28 08:45:43;;;;;;;4.15;3.53;;;;;;;;;;5069111;28;20024;-72
2021/06/28 08:48:09;;;;;;;4.75;3.30;;;;;;;;;;5067876;28;20814;-73
2021/06/28 08:50:37;;;;;;;5.82;3.88;;;;;;;;;;5069348;28;20520;-72
2021/06/28 08:53:04;;;;;;;6.13;3.20;;;;;;;;;;5069247;28;20020;-74
2021/06/28 08:55:30;;;;;;;4.85;3.65;;;;;;;;;;5054136;28;20458;-73
2021/06/28 08:57:57;;;;;;;6.45;3.65;;;;;;;;;;5057268;28;20505;-72
2021/06/28 09:00:23;;;;;;;4.70;3.72;;;;;;;;;;5068378;28;20511;-72
2021/06/28 09:02:58;;;;;;;4.25;3.20;;;;;;;;;;5063160;28;20032;-72
2021/06/28 09:05:24;;;;;;;4.05;3.38;;;;;;;;;;5064838;28;20040;-73
2021/06/28 09:08:08;;;;;;;4.57;3.65;;;;;;;;;;5064105;28;20033;-73
2021/06/28 09:10:35;;;;;;;4.63;3.20;;;;;;;;;;5065905;28;20032;-73
2021/06/28 09:13:02;;;;;;;4.03;3.10;;;;;;;;;;5068099;28;20035;-71
2021/06/28 09:15:44;;;;;;;4.65;3.60;;;;;;;;;;5068591;28;20415;-72
2021/06/28 09:18:24;;;;;;;3.60;2.70;;;;;;;;;;5065563;28;20036;-72
2021/06/28 09:20:51;;;;;;;4.75;3.45;;;;;;;;;;5062070;28;20028;-71
2021/06/28 09:23:18;;;;;;;3.78;2.80;;;;;;;;;;5082776;28;20042;-73
2021/06/28 09:25:45;;;;;;;5.15;2.90;;;;;;;;;;5067371;28;20479;-72
2021/06/28 09:28:11;;;;;;;4.05;3.20;;;;;;;;;;5063985;28;20087;-72
2021/06/28 09:30:49;;;;;;;4.90;3.47;;;;;;;;;;5069922;28;20145;-72
2021/06/28 09:33:19;;;;;;;3.50;2.92;;;;;;;;;;5063335;28;20021;-72
2021/06/28 09:35:45;;;;;;;7.30;3.28;;;;;;;;;;5063357;28;20028;-73
2021/06/28 09:38:29;;;;;;;5.47;3.00;;;;;;;;;;5056172;28;20025;-73
2021/06/28 09:40:55;;;;;;;3.90;3.25;;;;;;;;;;5055708;28;20452;-72
2021/06/28 09:43:25;;;;;;;4.03;3.30;;;;;;;;;;5054891;28;20491;-72
2021/06/28 09:45:55;;;;;;;5.03;3.50;;;;;;;;;;5065942;28;20028;-72
2021/06/28 09:48:22;;;;;;;4.78;3.13;;;;;;;;;;5056299;28;20029;-72
2021/06/28 09:50:49;;;;;;;4.63;3.33;;;;;;;;;;5062367;28;20029;-72
2021/06/28 09:53:25;;;;;;;4.45;3.25;;;;;;;;;;5060606;28;20141;-72
2021/06/28 09:55:51;;;;;;;4.38;3.10;;;;;;;;;;5058526;28;20044;-72
2021/06/28 09:58:27;;;;;;;4.63;3.55;;;;;;;;;;5063582;28;20079;-72
2021/06/28 10:00:59;;;;;;;5.13;3.33;;;;;;;;;;5056194;28;20025;-73
2021/06/28 10:03:27;;;;;;;5.35;3.20;;;;;;;;;;5066734;28;20039;-72
2021/06/28 10:06:00;;;;;;;4.57;3.22;;;;;;;;;;5067029;28;20048;-73
2021/06/28 10:08:31;;;;;;;3.85;3.35;;;;;;;;;;5066615;28;20029;-73
2021/06/28 10:11:12;;;;;;;6.15;3.47;;;;;;;;;;5064540;28;20027;-72
2021/06/28 10:13:38;;;;;;;5.25;3.15;;;;;;;;;;5066520;28;20130;-73
2021/06/28 10:16:05;;;;;;;3.95;3.10;;;;;;;;;;5064322;28;20035;-73
2021/06/28 10:18:31;;;;;;;4.13;3.03;;;;;;;;;;5063528;28;20167;-73
2021/06/28 10:20:57;;;;;;;4.68;3.40;;;;;;;;;;5066576;28;20543;-74
2021/06/28 10:23:23;;;;;;;3.35;2.78;;;;;;;;;;5060857;28;20105;-72
2021/06/28 10:25:50;;;;;;;4.68;3.40;;;;;;;;;;5067302;28;20032;-73
2021/06/28 10:28:16;;;;;;;4.28;3.25;;;;;;;;;;5065210;28;20039;-73
2021/06/28 10:30:42;;;;;;;5.30;3.17;;;;;;;;;;5067268;28;20032;-72
2021/06/28 10:33:13;;;;;;;3.92;3.10;;;;;;;;;;5062160;28;20029;-71
2021/06/28 10:35:40;;;;;;;3.92;2.90;;;;;;;;;;5055957;28;20021;-72
2021/06/28 10:38:11;;;;;;;4.82;3.50;;;;;;;;;;5063773;28;20071;-72
2021/06/28 10:40:44;;;;;;;4.95;3.25;;;;;;;;;;5066542;28;20413;-73
2021/06/28 10:43:34;;;;;;;5.22;3.33;;;;;;;;;;5065731;28;20082;-73
2021/06/28 10:46:01;;;;;;;4.30;3.47;;;;;;;;;;5056826;28;20090;-73
2021/06/28 10:48:29;;;;;;;3.42;2.92;;;;;;;;;;5060960;28;20032;-73
2021/06/28 10:50:55;;;;;;;7.05;3.53;;;;;;;;;;5068485;28;20033;-74
2021/06/28 10:53:45;;;;;;;9.02;3.33;;;;;;;;;;5068801;28;20462;-73
2021/06/28 10:56:33;;;;;;;4.60;3.60;;;;;;;;;;5061291;28;20048;-73
2021/06/28 10:59:00;;;;;;;4.90;3.33;;;;;;;;;;5065615;28;20021;-73
2021/06/28 11:01:39;;;;;;;4.70;3.35;;;;;;;;;;5064240;28;20033;-73
2021/06/28 11:04:05;;;;;;;5.93;3.50;;;;;;;;;;5069650;28;20498;-74
2021/06/28 11:06:32;;;;;;;4.22;3.38;;;;;;;;;;5070303;28;20554;-73
2021/06/28 11:08:59;;;;;;;4.18;3.28;;;;;;;;;;5069826;28;20036;-75
2021/06/28 11:11:46;;;;;;;6.03;3.10;;;;;;;;;;5069753;28;20514;-72
2021/06/28 11:14:18;;;;;;;4.63;3.60;;;;;;;;;;5052064;28;20024;-72
2021/06/28 11:17:08;;;;;;;4.97;3.60;;;;;;;;;;5068570;28;20042;-71
2021/06/28 11:19:46;;;;;;;4.60;3.47;;;;;;;;;;5069090;28;20085;-71
2021/06/28 11:22:28;;;;;;;9.00;4.47;;;;;;;;;;5065901;28;20021;-72
2021/06/28 11:24:57;;;;;;;5.82;3.72;;;;;;;;;;5063746;28;20025;-72
2021/06/28 11:27:23;;;;;;;9.73;4.15;;;;;;;;;;5065066;28;20111;-72
2021/06/28 11:29:52;;;;;;;9.35;3.97;;;;;;;;;;5067555;28;20036;-72
2021/06/28 11:32:21;;;;;;;5.43;3.92;;;;;;;;;;5068310;28;20478;-71
2021/06/28 11:34:47;;;;;;;5.63;3.58;;;;;;;;;;5060314;28;20491;-74
2021/06/28 11:37:13;;;;;;;6.75;3.70;;;;;;;;;;5060583;28;20029;-73
2021/06/28 11:39:58;;;;;;;9.35;3.63;;;;;;;;;;5070253;28;20032;-72
2021/06/28 11:42:37;;;;;;;5.78;3.78;;;;;;;;;;5084987;28;20029;-74
2021/06/28 11:45:06;;;;;;;5.00;3.80;;;;;;;;;;5068787;28;20178;-73
2021/06/28 11:47:45;;;;;;;5.18;3.60;;;;;;;;;;5067187;28;20036;-72
2021/06/28 11:50:27;;;;;;;8.25;4.05;;;;;;;;;;5062754;28;20494;-72
2021/06/28 11:53:00;;;;;;;5.88;4.35;;;;;;;;;;5070104;28;20025;-73
2021/06/28 11:55:28;;;;;;;3.50;2.90;;;;;;;;;;5062140;28;20037;-73
2021/06/28 11:57:55;;;;;;;4.75;3.45;;;;;;;;;;5062889;28;20042;-73
2021/06/28 12:00:21;;;;;;;5.82;3.40;;;;;;;;;;5060011;28;20024;-73
2021/06/28 12:02:47;;;;;;;5.90;3.67;;;;;;;;;;5061238;28;20749;-73
2021/06/28 12:05:24;;;;;;;10.13;3.85;;;;;;;;;;5068768;28;20051;-73
2021/06/28 12:07:53;;;;;;;7.10;4.18;;;;;;;;;;5066456;28;20394;-74
2021/06/28 12:10:22;;;;;;;3.60;2.92;;;;;;;;;;5071319;28;20700;-73
2021/06/28 12:12:56;;;;;;;6.05;3.50;;;;;;;;;;5069278;28;20029;-74
2021/06/28 12:15:25;;;;;;;4.50;3.30;;;;;;;;;;5070653;28;20463;-74
2021/06/28 12:17:51;;;;;;;6.97;3.40;;;;;;;;;;5071025;28;20044;-73
2021/06/28 12:20:19;;;;;;;4.00;3.60;;;;;;;;;;5068600;28;20082;-74
2021/06/28 12:22:50;;;;;;;5.43;3.20;;;;;;;;;;5070733;28;20499;-74
2021/06/28 12:25:17;;;;;;;5.32;3.92;;;;;;;;;;5070394;28;20051;-73
2021/06/28 12:27:45;;;;;;;4.85;3.67;;;;;;;;;;5068331;28;20090;-73
2021/06/28 12:30:12;;;;;;;3.88;3.17;;;;;;;;;;5064102;28;20093;-72
2021/06/28 12:32:45;;;;;;;4.38;3.13;;;;;;;;;;5070195;28;20024;-74
2021/06/28 12:35:13;;;;;;;4.50;3.67;;;;;;;;;;5069197;28;20032;-75
2021/06/28 12:37:41;;;;;;;3.90;3.13;;;;;;;;;;5064685;28;20699;-73
2021/06/28 12:40:17;;;;;;;3.95;2.97;;;;;;;;;;5068844;28;20029;-74
2021/06/28 12:42:43;;;;;;;4.43;3.33;;;;;;;;;;5058929;28;20059;-76
2021/06/28 12:45:10;;;;;;;5.03;2.90;;;;;;;;;;5071911;28;20069;-72
2021/06/28 12:47:36;;;;;;;5.30;2.75;;;;;;;;;;5063020;28;20499;-74
2021/06/28 12:50:06;;;;;;;6.10;3.67;;;;;;;;;;5061756;28;20044;-75
2021/06/28 12:52:36;;;;;;;4.13;3.25;;;;;;;;;;5058358;28;20398;-74
2021/06/28 12:55:05;;;;;;;4.90;3.15;;;;;;;;;;5064775;28;20048;-74
2021/06/28 12:57:31;;;;;;;3.78;3.05;;;;;;;;;;5059822;28;20535;-75
2021/06/28 12:59:57;;;;;;;4.68;3.03;;;;;;;;;;5064936;28;20040;-72
2021/06/28 13:02:30;;;;;;;4.55;3.40;;;;;;;;;;5057931;28;20024;-72
2021/06/28 13:05:03;;;;;;;3.30;2.90;;;;;;;;;;5062433;28;20032;-73
2021/06/28 13:07:29;;;;;;;3.72;3.03;;;;;;;;;;5054427;28;20135;-72
2021/06/28 13:09:59;;;;;;;5.15;3.47;;;;;;;;;;5063620;28;20554;-71
2021/06/28 13:12:26;;;;;;;3.88;3.42;;;;;;;;;;5063102;28;20384;-71
2021/06/28 13:14:58;;;;;;;4.68;3.20;;;;;;;;;;5064539;28;20052;-72
2021/06/28 13:17:27;;;;;;;4.20;2.63;;;;;;;;;;5066815;28;20012;-71
2021/06/28 13:19:53;;;;;;;4.85;2.92;;;;;;;;;;5061743;28;20063;-73
2021/06/28 13:22:20;;;;;;;3.72;3.10;;;;;;;;;;5055752;28;20099;-72
2021/06/28 13:24:50;;;;;;;4.65;3.10;;;;;;;;;;5058785;28;20040;-73
2021/06/28 13:27:18;;;;;;;4.68;2.78;;;;;;;;;;5062971;28;20037;-73
2021/06/28 13:29:46;;;;;;;4.43;3.28;;;;;;;;;;5068066;28;20025;-72
2021/06/28 13:32:21;;;;;;;3.20;2.90;;;;;;;;;;5062189;28;20036;-73
2021/06/28 13:34:48;;;;;;;4.45;3.08;;;;;;;;;;5058872;28;20095;-73
2021/06/28 13:37:24;;;;;;;5.28;3.30;;;;;;;;;;5066045;28;20029;-74
2021/06/28 13:39:51;;;;;;;3.10;2.75;;;;;;;;;;5064540;28;20398;-72
2021/06/28 13:42:29;;;;;;;4.05;2.67;;;;;;;;;;5059134;28;20434;-73
2021/06/28 13:44:56;;;;;;;2.65;2.15;;;;;;;;;;5064329;28;20048;-72
2021/06/28 13:47:22;;;;;;;2.85;2.40;;;;;;;;;;5058616;28;20125;-73
2021/06/28 13:49:48;;;;;;;3.45;2.40;;;;;;;;;;5067039;28;20030;-73
2021/06/28 13:52:14;;;;;;;3.63;2.10;;;;;;;;;;5063585;28;20103;-73
2021/06/28 13:54:40;;;;;;;3.78;2.45;;;;;;;;;;5056157;28;20548;-72
2021/06/28 13:57:06;;;;;;;4.07;2.75;;;;;;;;;;5062229;28;20028;-73
2021/06/28 13:59:33;;;;;;;4.22;2.78;;;;;;;;;;5066195;28;20028;-73
2021/06/28 14:01:59;;;;;;;6.05;2.45;;;;;;;;;;5056608;28;20158;-71
2021/06/28 14:04:25;;;;;;;4.47;2.20;;;;;;;;;;5061681;28;20037;-72
2021/06/28 14:06:51;;;;;;;5.45;2.40;;;;;;;;;;5064981;28;20032;-72
2021/06/28 14:09:17;;;;;;;2.70;2.10;;;;;;;;;;5062838;28;20032;-72
2021/06/28 14:11:43;;;;;;;2.53;1.98;;;;;;;;;;5064087;28;20071;-74
2021/06/28 14:14:09;;;;;;;6.60;2.20;;;;;;;;;;5065450;28;20024;-73
2021/06/28 14:16:35;;;;;;;3.13;2.17;;;;;;;;;;5066802;28;20037;-72
2021/06/28 14:19:02;;;;;;;4.93;2.30;;;;;;;;;;5066999;28;20078;-73
2021/06/28 14:21:29;;;;;;;2.10;1.90;;;;;;;;;;5060606;28;20029;-71
2021/06/28 14:23:55;;;;;;;2.92;2.30;;;;;;;;;;5062625;28;20158;-72
2021/06/28 14:26:21;;;;;;;9.82;2.78;;;;;;;;;;5067533;28;20082;-73
2021/06/28 14:28:47;;;;;;;3.20;2.28;;;;;;;;;;5067149;28;20046;-72
2021/06/28 14:31:14;;;;;;;3.25;2.58;;;;;;;;;;5062220;28;20021;-73
2021/06/28 14:33:40;;;;;;;3.92;2.20;;;;;;;;;;5065908;28;20081;-72
2021/06/28 14:36:06;;;;;;;2.55;2.03;;;;;;;;;;5066663;28;20056;-73
2021/06/28 14:38:32;;;;;;;2.15;1.90;;;;;;;;;;5062447;28;20033;-74
2021/06/28 14:40:59;;;;;;;2.40;2.08;;;;;;;;;;5059744;28;20491;-73
2021/06/28 14:43:25;;;;;;;2.17;1.80;;;;;;;;;;5065136;28;20037;-73
2021/06/28 14:45:51;;;;;;;2.45;2.10;;;;;;;;;;5065337;28;20032;-71